sensor_id;sensor_type;location;lat;lon;timestamp;P1;durP1;ratioP1;P2;durP2;ratioP2
17173;SDS011;8702;48.130;-1.696;2023-09-19T00:00:04;5.38;;;1.80;;
17173;SDS011;8702;48.130;-1.696;2023-09-19T00:02:35;4.13;;;1.60;;
17173;SDS011;8702;48.130;-1.696;2023-09-19T00:05:04;6.25;;;1.98;;
17173;SDS011;8702;48.130;-1.696;2023-09-19T00:07:32;4.07;;;1.77;;
17173;SDS011;8702;48.130;-1.696;2023-09-19T00:10:01;6.50;;;1.88;;
17173;SDS011;8702;48.130;-1.696;2023-09-19T00:12:29;4.78;;;1.65;;
17173;SDS011;8702;48.130;-1.696;2023-09-19T00:14:56;6.65;;;1.85;;
17173;SDS011;8702;48.130;-1.696;2023-09-19T00:17:27;5.93;;;1.98;;
17173;SDS011;8702;48.130;-1.696;2023-09-19T00:19:55;4.32;;;1.65;;
17173;SDS011;8702;48.130;-1.696;2023-09-19T00:22:22;7.32;;;2.03;;
17173;SDS011;8702;48.130;-1.696;2023-09-19T00:24:51;5.45;;;1.88;;
17173;SDS011;8702;48.130;-1.696;2023-09-19T00:27:18;6.07;;;2.10;;
17173;SDS011;8702;48.130;-1.696;2023-09-19T00:29:45;6.05;;;1.88;;
17173;SDS011;8702;48.130;-1.696;2023-09-19T00:32:12;4.68;;;1.98;;
17173;SDS011;8702;48.130;-1.696;2023-09-19T00:34:40;6.72;;;2.20;;
17173;SDS011;8702;48.130;-1.696;2023-09-19T00:37:08;6.43;;;2.05;;
17173;SDS011;8702;48.130;-1.696;2023-09-19T00:39:36;5.63;;;2.30;;
17173;SDS011;8702;48.130;-1.696;2023-09-19T00:42:03;7.47;;;2.20;;
17173;SDS011;8702;48.130;-1.696;2023-09-19T00:44:30;6.88;;;2.00;;
17173;SDS011;8702;48.130;-1.696;2023-09-19T00:46:59;7.30;;;2.22;;
17173;SDS011;8702;48.130;-1.696;2023-09-19T00:49:27;7.57;;;2.20;;
17173;SDS011;8702;48.130;-1.696;2023-09-19T00:51:57;7.88;;;2.40;;
17173;SDS011;8702;48.130;-1.696;2023-09-19T00:54:24;5.70;;;2.30;;
17173;SDS011;8702;48.130;-1.696;2023-09-19T00:56:53;6.88;;;2.30;;
17173;SDS011;8702;48.130;-1.696;2023-09-19T00:59:20;7.10;;;2.35;;
17173;SDS011;8702;48.130;-1.696;2023-09-19T01:01:47;6.67;;;2.20;;
17173;SDS011;8702;48.130;-1.696;2023-09-19T01:04:18;6.95;;;2.25;;
17173;SDS011;8702;48.130;-1.696;2023-09-19T01:06:45;8.75;;;2.60;;
17173;SDS011;8702;48.130;-1.696;2023-09-19T01:09:13;11.48;;;2.65;;
17173;SDS011;8702;48.130;-1.696;2023-09-19T01:11:40;9.70;;;2.22;;
17173;SDS011;8702;48.130;-1.696;2023-09-19T01:14:14;8.15;;;2.58;;
17173;SDS011;8702;48.130;-1.696;2023-09-19T01:16:50;9.85;;;2.75;;
17173;SDS011;8702;48.130;-1.696;2023-09-19T01:19:32;6.93;;;2.28;;
17173;SDS011;8702;48.130;-1.696;2023-09-19T01:22:20;6.95;;;2.42;;
17173;SDS011;8702;48.130;-1.696;2023-09-19T01:25:02;9.15;;;2.42;;
17173;SDS011;8702;48.130;-1.696;2023-09-19T01:28:15;9.32;;;2.50;;
17173;SDS011;8702;48.130;-1.696;2023-09-19T01:30:59;9.80;;;3.00;;
17173;SDS011;8702;48.130;-1.696;2023-09-19T01:33:28;8.35;;;2.55;;
17173;SDS011;8702;48.130;-1.696;2023-09-19T01:36:17;9.57;;;2.73;;
17173;SDS011;8702;48.130;-1.696;2023-09-19T01:38:43;8.18;;;2.45;;
17173;SDS011;8702;48.130;-1.696;2023-09-19T01:41:11;9.43;;;2.83;;
17173;SDS011;8702;48.130;-1.696;2023-09-19T01:43:42;10.57;;;2.72;;
17173;SDS011;8702;48.130;-1.696;2023-09-19T01:46:14;7.93;;;2.47;;
17173;SDS011;8702;48.130;-1.696;2023-09-19T01:48:46;7.70;;;2.67;;
17173;SDS011;8702;48.130;-1.696;2023-09-19T01:51:26;7.95;;;2.50;;
17173;SDS011;8702;48.130;-1.696;2023-09-19T01:54:01;8.82;;;2.58;;
17173;SDS011;8702;48.130;-1.696;2023-09-19T01:56:32;7.93;;;2.85;;
17173;SDS011;8702;48.130;-1.696;2023-09-19T01:59:04;9.45;;;2.60;;
17173;SDS011;8702;48.130;-1.696;2023-09-19T02:01:37;9.18;;;2.70;;
17173;SDS011;8702;48.130;-1.696;2023-09-19T02:04:04;9.20;;;2.72;;
17173;SDS011;8702;48.130;-1.696;2023-09-19T02:06:31;7.13;;;2.45;;
17173;SDS011;8702;48.130;-1.696;2023-09-19T02:08:59;9.88;;;2.60;;
17173;SDS011;8702;48.130;-1.696;2023-09-19T02:11:27;8.60;;;2.58;;
17173;SDS011;8702;48.130;-1.696;2023-09-19T02:13:54;7.00;;;2.40;;
17173;SDS011;8702;48.130;-1.696;2023-09-19T02:16:21;6.40;;;2.50;;
17173;SDS011;8702;48.130;-1.696;2023-09-19T02:18:49;7.65;;;2.20;;
17173;SDS011;8702;48.130;-1.696;2023-09-19T02:21:16;10.23;;;2.70;;
17173;SDS011;8702;48.130;-1.696;2023-09-19T02:23:43;10.27;;;3.08;;
17173;SDS011;8702;48.130;-1.696;2023-09-19T02:26:12;10.93;;;2.78;;
17173;SDS011;8702;48.130;-1.696;2023-09-19T02:28:39;8.18;;;2.75;;
17173;SDS011;8702;48.130;-1.696;2023-09-19T02:31:06;8.63;;;2.50;;
17173;SDS011;8702;48.130;-1.696;2023-09-19T02:33:32;11.80;;;2.85;;
17173;SDS011;8702;48.130;-1.696;2023-09-19T02:36:02;9.38;;;2.65;;
17173;SDS011;8702;48.130;-1.696;2023-09-19T02:38:30;8.43;;;2.53;;
17173;SDS011;8702;48.130;-1.696;2023-09-19T02:40:57;10.52;;;2.95;;
17173;SDS011;8702;48.130;-1.696;2023-09-19T02:43:24;8.45;;;2.90;;
17173;SDS011;8702;48.130;-1.696;2023-09-19T02:45:51;9.23;;;2.70;;
17173;SDS011;8702;48.130;-1.696;2023-09-19T02:48:18;12.13;;;3.00;;
17173;SDS011;8702;48.130;-1.696;2023-09-19T02:50:45;9.27;;;2.73;;
17173;SDS011;8702;48.130;-1.696;2023-09-19T02:53:14;8.17;;;2.47;;
17173;SDS011;8702;48.130;-1.696;2023-09-19T02:55:41;10.65;;;3.15;;
17173;SDS011;8702;48.130;-1.696;2023-09-19T02:58:08;7.20;;;2.53;;
17173;SDS011;8702;48.130;-1.696;2023-09-19T03:00:36;9.80;;;2.67;;
17173;SDS011;8702;48.130;-1.696;2023-09-19T03:03:04;10.45;;;2.58;;
17173;SDS011;8702;48.130;-1.696;2023-09-19T03:05:33;10.50;;;2.72;;
17173;SDS011;8702;48.130;-1.696;2023-09-19T03:08:00;11.70;;;2.95;;
17173;SDS011;8702;48.130;-1.696;2023-09-19T03:10:29;11.03;;;3.00;;
17173;SDS011;8702;48.130;-1.696;2023-09-19T03:12:56;8.32;;;2.80;;
17173;SDS011;8702;48.130;-1.696;2023-09-19T03:15:27;9.55;;;2.70;;
17173;SDS011;8702;48.130;-1.696;2023-09-19T03:17:54;10.18;;;2.53;;
17173;SDS011;8702;48.130;-1.696;2023-09-19T03:20:21;10.88;;;2.63;;
17173;SDS011;8702;48.130;-1.696;2023-09-19T03:22:47;7.93;;;2.67;;
17173;SDS011;8702;48.130;-1.696;2023-09-19T03:25:15;9.82;;;2.65;;
17173;SDS011;8702;48.130;-1.696;2023-09-19T03:27:43;9.80;;;3.05;;
17173;SDS011;8702;48.130;-1.696;2023-09-19T03:30:11;10.77;;;2.72;;
17173;SDS011;8702;48.130;-1.696;2023-09-19T03:32:43;11.30;;;2.92;;
17173;SDS011;8702;48.130;-1.696;2023-09-19T03:35:11;10.68;;;2.83;;
17173;SDS011;8702;48.130;-1.696;2023-09-19T03:37:39;10.50;;;3.17;;
17173;SDS011;8702;48.130;-1.696;2023-09-19T03:40:07;13.23;;;3.08;;
17173;SDS011;8702;48.130;-1.696;2023-09-19T03:42:37;9.98;;;2.60;;
17173;SDS011;8702;48.130;-1.696;2023-09-19T03:45:06;10.13;;;2.75;;
17173;SDS011;8702;48.130;-1.696;2023-09-19T03:47:37;12.45;;;3.17;;
17173;SDS011;8702;48.130;-1.696;2023-09-19T03:50:06;10.50;;;2.88;;
17173;SDS011;8702;48.130;-1.696;2023-09-19T03:52:33;10.05;;;2.78;;
17173;SDS011;8702;48.130;-1.696;2023-09-19T03:55:00;11.10;;;3.10;;
17173;SDS011;8702;48.130;-1.696;2023-09-19T03:57:29;11.80;;;3.40;;
17173;SDS011;8702;48.130;-1.696;2023-09-19T03:59:56;12.80;;;2.90;;
17173;SDS011;8702;48.130;-1.696;2023-09-19T04:02:24;12.27;;;3.28;;
17173;SDS011;8702;48.130;-1.696;2023-09-19T04:04:57;10.23;;;3.05;;
17173;SDS011;8702;48.130;-1.696;2023-09-19T04:07:24;10.98;;;2.60;;
17173;SDS011;8702;48.130;-1.696;2023-09-19T04:09:54;11.90;;;3.00;;
17173;SDS011;8702;48.130;-1.696;2023-09-19T04:12:20;10.13;;;2.78;;
17173;SDS011;8702;48.130;-1.696;2023-09-19T04:14:47;10.13;;;2.80;;
17173;SDS011;8702;48.130;-1.696;2023-09-19T04:17:15;12.02;;;3.00;;
17173;SDS011;8702;48.130;-1.696;2023-09-19T04:19:43;12.97;;;3.13;;
17173;SDS011;8702;48.130;-1.696;2023-09-19T04:22:10;12.65;;;3.10;;
17173;SDS011;8702;48.130;-1.696;2023-09-19T04:24:37;10.73;;;3.03;;
17173;SDS011;8702;48.130;-1.696;2023-09-19T04:27:04;8.75;;;2.75;;
17173;SDS011;8702;48.130;-1.696;2023-09-19T04:29:32;11.82;;;2.80;;
17173;SDS011;8702;48.130;-1.696;2023-09-19T04:31:59;9.18;;;3.28;;
17173;SDS011;8702;48.130;-1.696;2023-09-19T04:34:26;9.52;;;3.05;;
17173;SDS011;8702;48.130;-1.696;2023-09-19T04:36:54;7.78;;;2.90;;
17173;SDS011;8702;48.130;-1.696;2023-09-19T04:39:21;9.55;;;2.97;;
17173;SDS011;8702;48.130;-1.696;2023-09-19T04:41:50;12.00;;;3.30;;
17173;SDS011;8702;48.130;-1.696;2023-09-19T04:44:18;11.07;;;2.97;;
17173;SDS011;8702;48.130;-1.696;2023-09-19T04:46:45;11.60;;;3.10;;
17173;SDS011;8702;48.130;-1.696;2023-09-19T04:49:12;11.23;;;3.10;;
17173;SDS011;8702;48.130;-1.696;2023-09-19T04:51:39;12.60;;;3.03;;
17173;SDS011;8702;48.130;-1.696;2023-09-19T04:54:08;8.00;;;2.77;;
17173;SDS011;8702;48.130;-1.696;2023-09-19T04:56:36;13.27;;;3.25;;
17173;SDS011;8702;48.130;-1.696;2023-09-19T04:59:05;9.45;;;2.83;;
17173;SDS011;8702;48.130;-1.696;2023-09-19T05:01:32;9.93;;;2.80;;
17173;SDS011;8702;48.130;-1.696;2023-09-19T05:03:59;11.67;;;2.73;;
17173;SDS011;8702;48.130;-1.696;2023-09-19T05:06:26;11.43;;;2.77;;
17173;SDS011;8702;48.130;-1.696;2023-09-19T05:08:52;7.28;;;2.70;;
17173;SDS011;8702;48.130;-1.696;2023-09-19T05:11:21;10.35;;;2.85;;
17173;SDS011;8702;48.130;-1.696;2023-09-19T05:13:48;9.77;;;2.65;;
17173;SDS011;8702;48.130;-1.696;2023-09-19T05:16:15;9.80;;;2.97;;
17173;SDS011;8702;48.130;-1.696;2023-09-19T05:18:43;11.20;;;3.15;;
17173;SDS011;8702;48.130;-1.696;2023-09-19T05:21:09;11.57;;;2.97;;
17173;SDS011;8702;48.130;-1.696;2023-09-19T05:23:37;10.97;;;3.13;;
17173;SDS011;8702;48.130;-1.696;2023-09-19T05:26:04;11.57;;;3.28;;
17173;SDS011;8702;48.130;-1.696;2023-09-19T05:28:32;11.57;;;3.20;;
17173;SDS011;8702;48.130;-1.696;2023-09-19T05:31:00;13.60;;;3.60;;
17173;SDS011;8702;48.130;-1.696;2023-09-19T05:33:27;11.18;;;2.80;;
17173;SDS011;8702;48.130;-1.696;2023-09-19T05:35:56;10.70;;;2.97;;
17173;SDS011;8702;48.130;-1.696;2023-09-19T05:38:22;9.98;;;3.03;;
17173;SDS011;8702;48.130;-1.696;2023-09-19T05:40:52;10.75;;;3.00;;
17173;SDS011;8702;48.130;-1.696;2023-09-19T05:43:19;14.73;;;3.13;;
17173;SDS011;8702;48.130;-1.696;2023-09-19T05:45:47;9.57;;;2.90;;
17173;SDS011;8702;48.130;-1.696;2023-09-19T05:48:17;11.83;;;3.20;;
17173;SDS011;8702;48.130;-1.696;2023-09-19T05:50:46;9.88;;;2.88;;
17173;SDS011;8702;48.130;-1.696;2023-09-19T05:53:14;9.63;;;3.10;;
17173;SDS011;8702;48.130;-1.696;2023-09-19T05:55:41;10.10;;;3.25;;
17173;SDS011;8702;48.130;-1.696;2023-09-19T05:58:08;10.23;;;3.17;;
17173;SDS011;8702;48.130;-1.696;2023-09-19T06:00:35;9.50;;;2.80;;
17173;SDS011;8702;48.130;-1.696;2023-09-19T06:03:03;14.73;;;3.28;;
17173;SDS011;8702;48.130;-1.696;2023-09-19T06:05:30;12.77;;;3.27;;
17173;SDS011;8702;48.130;-1.696;2023-09-19T06:07:57;8.73;;;2.90;;
17173;SDS011;8702;48.130;-1.696;2023-09-19T06:10:25;10.20;;;3.03;;
17173;SDS011;8702;48.130;-1.696;2023-09-19T06:12:53;10.00;;;3.20;;
17173;SDS011;8702;48.130;-1.696;2023-09-19T06:15:23;10.35;;;3.13;;
17173;SDS011;8702;48.130;-1.696;2023-09-19T06:17:50;12.00;;;3.03;;
17173;SDS011;8702;48.130;-1.696;2023-09-19T06:20:22;14.25;;;3.15;;
17173;SDS011;8702;48.130;-1.696;2023-09-19T06:22:49;9.30;;;3.20;;
17173;SDS011;8702;48.130;-1.696;2023-09-19T06:25:16;11.40;;;3.33;;
17173;SDS011;8702;48.130;-1.696;2023-09-19T06:27:45;11.25;;;2.83;;
17173;SDS011;8702;48.130;-1.696;2023-09-19T06:30:12;10.77;;;3.22;;
17173;SDS011;8702;48.130;-1.696;2023-09-19T06:32:39;11.17;;;3.20;;
17173;SDS011;8702;48.130;-1.696;2023-09-19T06:35:09;10.13;;;3.17;;
17173;SDS011;8702;48.130;-1.696;2023-09-19T06:37:37;13.47;;;3.33;;
17173;SDS011;8702;48.130;-1.696;2023-09-19T06:40:06;11.50;;;3.38;;
17173;SDS011;8702;48.130;-1.696;2023-09-19T06:42:38;10.95;;;3.20;;
17173;SDS011;8702;48.130;-1.696;2023-09-19T06:45:06;13.05;;;3.20;;
17173;SDS011;8702;48.130;-1.696;2023-09-19T06:47:33;12.30;;;3.28;;
17173;SDS011;8702;48.130;-1.696;2023-09-19T06:50:01;10.38;;;2.90;;
17173;SDS011;8702;48.130;-1.696;2023-09-19T06:52:30;13.00;;;3.90;;
17173;SDS011;8702;48.130;-1.696;2023-09-19T06:54:59;11.90;;;3.33;;
17173;SDS011;8702;48.130;-1.696;2023-09-19T06:57:28;10.38;;;3.35;;
17173;SDS011;8702;48.130;-1.696;2023-09-19T06:59:55;12.10;;;3.40;;
17173;SDS011;8702;48.130;-1.696;2023-09-19T07:02:22;11.85;;;3.47;;
17173;SDS011;8702;48.130;-1.696;2023-09-19T07:04:49;11.30;;;3.50;;
17173;SDS011;8702;48.130;-1.696;2023-09-19T07:07:16;10.82;;;3.33;;
17173;SDS011;8702;48.130;-1.696;2023-09-19T07:09:43;14.83;;;3.50;;
17173;SDS011;8702;48.130;-1.696;2023-09-19T07:12:11;13.07;;;3.30;;
17173;SDS011;8702;48.130;-1.696;2023-09-19T07:14:38;8.10;;;2.40;;
17173;SDS011;8702;48.130;-1.696;2023-09-19T07:17:05;13.48;;;3.10;;
17173;SDS011;8702;48.130;-1.696;2023-09-19T07:19:32;14.20;;;3.50;;
17173;SDS011;8702;48.130;-1.696;2023-09-19T07:21:59;11.70;;;3.25;;
17173;SDS011;8702;48.130;-1.696;2023-09-19T07:24:27;10.37;;;2.93;;
17173;SDS011;8702;48.130;-1.696;2023-09-19T07:26:54;11.13;;;2.92;;
17173;SDS011;8702;48.130;-1.696;2023-09-19T07:29:22;15.65;;;3.40;;
17173;SDS011;8702;48.130;-1.696;2023-09-19T07:31:51;10.63;;;2.90;;
17173;SDS011;8702;48.130;-1.696;2023-09-19T07:34:18;11.77;;;3.10;;
17173;SDS011;8702;48.130;-1.696;2023-09-19T07:36:46;10.13;;;3.22;;
17173;SDS011;8702;48.130;-1.696;2023-09-19T07:39:13;11.15;;;3.22;;
17173;SDS011;8702;48.130;-1.696;2023-09-19T07:41:40;10.23;;;3.00;;
17173;SDS011;8702;48.130;-1.696;2023-09-19T07:44:07;10.33;;;3.50;;
17173;SDS011;8702;48.130;-1.696;2023-09-19T07:46:36;11.00;;;3.00;;
17173;SDS011;8702;48.130;-1.696;2023-09-19T07:49:03;11.95;;;3.15;;
17173;SDS011;8702;48.130;-1.696;2023-09-19T07:51:31;11.38;;;3.28;;
17173;SDS011;8702;48.130;-1.696;2023-09-19T07:53:58;10.45;;;3.08;;
17173;SDS011;8702;48.130;-1.696;2023-09-19T07:56:25;12.05;;;3.22;;
17173;SDS011;8702;48.130;-1.696;2023-09-19T07:58:52;12.38;;;3.28;;
17173;SDS011;8702;48.130;-1.696;2023-09-19T08:01:19;12.55;;;3.42;;
17173;SDS011;8702;48.130;-1.696;2023-09-19T08:03:50;13.00;;;3.25;;
17173;SDS011;8702;48.130;-1.696;2023-09-19T08:06:17;10.98;;;3.20;;
17173;SDS011;8702;48.130;-1.696;2023-09-19T08:08:45;11.80;;;3.65;;
17173;SDS011;8702;48.130;-1.696;2023-09-19T08:11:12;10.18;;;3.30;;
17173;SDS011;8702;48.130;-1.696;2023-09-19T08:13:44;10.27;;;3.10;;
17173;SDS011;8702;48.130;-1.696;2023-09-19T08:16:14;9.77;;;2.88;;
17173;SDS011;8702;48.130;-1.696;2023-09-19T08:18:41;11.88;;;3.20;;
17173;SDS011;8702;48.130;-1.696;2023-09-19T08:21:11;11.68;;;2.95;;
17173;SDS011;8702;48.130;-1.696;2023-09-19T08:23:40;11.57;;;3.00;;
17173;SDS011;8702;48.130;-1.696;2023-09-19T08:26:08;14.13;;;3.20;;
17173;SDS011;8702;48.130;-1.696;2023-09-19T08:28:35;12.23;;;3.03;;
17173;SDS011;8702;48.130;-1.696;2023-09-19T08:31:06;10.57;;;3.20;;
17173;SDS011;8702;48.130;-1.696;2023-09-19T08:33:34;13.02;;;3.42;;
17173;SDS011;8702;48.130;-1.696;2023-09-19T08:36:01;11.80;;;3.22;;
17173;SDS011;8702;48.130;-1.696;2023-09-19T08:38:31;9.52;;;3.08;;
17173;SDS011;8702;48.130;-1.696;2023-09-19T08:41:00;9.55;;;3.20;;
17173;SDS011;8702;48.130;-1.696;2023-09-19T08:43:30;10.23;;;2.80;;
17173;SDS011;8702;48.130;-1.696;2023-09-19T08:46:09;11.53;;;2.93;;
17173;SDS011;8702;48.130;-1.696;2023-09-19T08:48:39;11.40;;;3.28;;
17173;SDS011;8702;48.130;-1.696;2023-09-19T08:51:12;10.80;;;3.15;;
17173;SDS011;8702;48.130;-1.696;2023-09-19T08:53:49;7.60;;;2.75;;
17173;SDS011;8702;48.130;-1.696;2023-09-19T08:56:18;12.43;;;3.45;;
17173;SDS011;8702;48.130;-1.696;2023-09-19T08:58:48;10.68;;;3.13;;
17173;SDS011;8702;48.130;-1.696;2023-09-19T09:01:18;10.32;;;3.03;;
17173;SDS011;8702;48.130;-1.696;2023-09-19T09:03:49;11.50;;;3.40;;
17173;SDS011;8702;48.130;-1.696;2023-09-19T09:06:17;12.05;;;3.20;;
17173;SDS011;8702;48.130;-1.696;2023-09-19T09:08:45;11.05;;;3.20;;
17173;SDS011;8702;48.130;-1.696;2023-09-19T09:11:15;12.18;;;3.17;;
17173;SDS011;8702;48.130;-1.696;2023-09-19T09:13:43;12.10;;;3.13;;
17173;SDS011;8702;48.130;-1.696;2023-09-19T09:16:10;12.48;;;3.80;;
17173;SDS011;8702;48.130;-1.696;2023-09-19T09:18:37;11.85;;;3.35;;
17173;SDS011;8702;48.130;-1.696;2023-09-19T09:21:05;11.57;;;3.38;;
17173;SDS011;8702;48.130;-1.696;2023-09-19T09:23:32;13.32;;;3.10;;
17173;SDS011;8702;48.130;-1.696;2023-09-19T09:26:00;13.68;;;3.47;;
17173;SDS011;8702;48.130;-1.696;2023-09-19T09:28:30;13.05;;;3.38;;
17173;SDS011;8702;48.130;-1.696;2023-09-19T09:30:58;11.90;;;3.25;;
17173;SDS011;8702;48.130;-1.696;2023-09-19T09:33:27;10.32;;;3.00;;
17173;SDS011;8702;48.130;-1.696;2023-09-19T09:35:55;10.90;;;3.30;;
17173;SDS011;8702;48.130;-1.696;2023-09-19T09:38:25;12.18;;;3.42;;
17173;SDS011;8702;48.130;-1.696;2023-09-19T09:40:54;13.93;;;3.42;;
17173;SDS011;8702;48.130;-1.696;2023-09-19T09:43:31;11.23;;;3.45;;
17173;SDS011;8702;48.130;-1.696;2023-09-19T09:46:07;11.25;;;3.40;;
17173;SDS011;8702;48.130;-1.696;2023-09-19T09:49:10;12.85;;;3.60;;
17173;SDS011;8702;48.130;-1.696;2023-09-19T09:51:57;12.48;;;3.20;;
17173;SDS011;8702;48.130;-1.696;2023-09-19T09:54:30;11.10;;;3.53;;
17173;SDS011;8702;48.130;-1.696;2023-09-19T09:57:02;11.82;;;3.67;;
17173;SDS011;8702;48.130;-1.696;2023-09-19T10:02:41;11.80;;;3.50;;
17173;SDS011;8702;48.130;-1.696;2023-09-19T10:05:12;10.40;;;3.65;;
17173;SDS011;8702;48.130;-1.696;2023-09-19T10:07:46;13.50;;;3.30;;
17173;SDS011;8702;48.130;-1.696;2023-09-19T10:10:15;10.95;;;3.03;;
17173;SDS011;8702;48.130;-1.696;2023-09-19T10:13:03;13.40;;;3.50;;
17173;SDS011;8702;48.130;-1.696;2023-09-19T10:15:34;9.90;;;3.40;;
17173;SDS011;8702;48.130;-1.696;2023-09-19T10:18:04;10.45;;;3.42;;
17173;SDS011;8702;48.130;-1.696;2023-09-19T10:20:33;9.05;;;3.10;;
17173;SDS011;8702;48.130;-1.696;2023-09-19T10:23:04;11.38;;;3.55;;
17173;SDS011;8702;48.130;-1.696;2023-09-19T10:25:36;11.03;;;3.83;;
17173;SDS011;8702;48.130;-1.696;2023-09-19T10:28:03;12.80;;;3.58;;
17173;SDS011;8702;48.130;-1.696;2023-09-19T10:30:37;10.53;;;3.20;;
17173;SDS011;8702;48.130;-1.696;2023-09-19T10:33:07;8.38;;;2.92;;
17173;SDS011;8702;48.130;-1.696;2023-09-19T10:35:34;11.43;;;3.37;;
17173;SDS011;8702;48.130;-1.696;2023-09-19T10:38:05;9.90;;;3.00;;
17173;SDS011;8702;48.130;-1.696;2023-09-19T10:40:34;11.40;;;3.38;;
17173;SDS011;8702;48.130;-1.696;2023-09-19T10:43:02;10.32;;;3.75;;
17173;SDS011;8702;48.130;-1.696;2023-09-19T10:45:30;9.98;;;3.25;;
17173;SDS011;8702;48.130;-1.696;2023-09-19T10:47:59;10.50;;;3.20;;
17173;SDS011;8702;48.130;-1.696;2023-09-19T10:50:28;10.80;;;3.33;;
17173;SDS011;8702;48.130;-1.696;2023-09-19T10:52:58;11.60;;;3.40;;
17173;SDS011;8702;48.130;-1.696;2023-09-19T10:55:29;8.60;;;3.05;;
17173;SDS011;8702;48.130;-1.696;2023-09-19T10:57:57;10.30;;;3.20;;
17173;SDS011;8702;48.130;-1.696;2023-09-19T11:00:49;9.20;;;3.33;;
17173;SDS011;8702;48.130;-1.696;2023-09-19T11:03:18;10.70;;;3.17;;
17173;SDS011;8702;48.130;-1.696;2023-09-19T11:11:44;11.25;;;3.60;;
17173;SDS011;8702;48.130;-1.696;2023-09-19T11:25:42;11.45;;;3.60;;
17173;SDS011;8702;48.130;-1.696;2023-09-19T11:28:31;10.63;;;3.57;;
17173;SDS011;8702;48.130;-1.696;2023-09-19T11:30:58;12.48;;;3.53;;
17173;SDS011;8702;48.130;-1.696;2023-09-19T11:33:25;8.57;;;3.20;;
17173;SDS011;8702;48.130;-1.696;2023-09-19T11:35:58;10.02;;;2.95;;
17173;SDS011;8702;48.130;-1.696;2023-09-19T11:47:01;8.48;;;3.13;;
17173;SDS011;8702;48.130;-1.696;2023-09-19T11:49:29;11.03;;;3.43;;
17173;SDS011;8702;48.130;-1.696;2023-09-19T11:51:57;13.13;;;3.40;;
17173;SDS011;8702;48.130;-1.696;2023-09-19T11:54:26;7.43;;;3.13;;
17173;SDS011;8702;48.130;-1.696;2023-09-19T11:56:56;10.20;;;3.30;;
17173;SDS011;8702;48.130;-1.696;2023-09-19T11:59:24;9.55;;;3.10;;
17173;SDS011;8702;48.130;-1.696;2023-09-19T12:01:53;10.27;;;3.13;;
17173;SDS011;8702;48.130;-1.696;2023-09-19T12:04:32;11.70;;;3.40;;
17173;SDS011;8702;48.130;-1.696;2023-09-19T12:07:00;7.85;;;3.17;;
17173;SDS011;8702;48.130;-1.696;2023-09-19T12:09:28;12.95;;;3.60;;
17173;SDS011;8702;48.130;-1.696;2023-09-19T12:11:55;9.38;;;3.03;;
17173;SDS011;8702;48.130;-1.696;2023-09-19T12:14:22;11.35;;;3.50;;
17173;SDS011;8702;48.130;-1.696;2023-09-19T12:16:51;10.77;;;3.58;;
17173;SDS011;8702;48.130;-1.696;2023-09-19T12:19:20;12.38;;;3.78;;
17173;SDS011;8702;48.130;-1.696;2023-09-19T12:21:56;9.25;;;3.50;;
17173;SDS011;8702;48.130;-1.696;2023-09-19T12:24:24;11.25;;;3.88;;
17173;SDS011;8702;48.130;-1.696;2023-09-19T12:26:56;10.88;;;3.72;;
17173;SDS011;8702;48.130;-1.696;2023-09-19T12:29:26;12.82;;;3.72;;
17173;SDS011;8702;48.130;-1.696;2023-09-19T12:31:56;8.00;;;2.90;;
17173;SDS011;8702;48.130;-1.696;2023-09-19T12:34:24;9.73;;;3.53;;
17173;SDS011;8702;48.130;-1.696;2023-09-19T12:39:43;8.90;;;3.30;;
17173;SDS011;8702;48.130;-1.696;2023-09-19T12:42:14;11.60;;;3.50;;
17173;SDS011;8702;48.130;-1.696;2023-09-19T12:44:41;10.93;;;3.75;;
17173;SDS011;8702;48.130;-1.696;2023-09-19T12:47:10;9.82;;;3.45;;
17173;SDS011;8702;48.130;-1.696;2023-09-19T12:52:20;11.35;;;3.20;;
17173;SDS011;8702;48.130;-1.696;2023-09-19T12:54:52;11.98;;;3.75;;
17173;SDS011;8702;48.130;-1.696;2023-09-19T12:57:23;9.13;;;3.20;;
17173;SDS011;8702;48.130;-1.696;2023-09-19T12:59:51;10.70;;;3.90;;
17173;SDS011;8702;48.130;-1.696;2023-09-19T13:02:19;10.77;;;3.70;;
17173;SDS011;8702;48.130;-1.696;2023-09-19T13:04:51;9.25;;;3.50;;
17173;SDS011;8702;48.130;-1.696;2023-09-19T13:10:06;11.75;;;3.97;;
17173;SDS011;8702;48.130;-1.696;2023-09-19T13:12:37;10.27;;;3.67;;
17173;SDS011;8702;48.130;-1.696;2023-09-19T13:15:07;11.98;;;4.10;;
17173;SDS011;8702;48.130;-1.696;2023-09-19T13:17:44;9.20;;;3.80;;
17173;SDS011;8702;48.130;-1.696;2023-09-19T13:20:23;8.70;;;3.72;;
17173;SDS011;8702;48.130;-1.696;2023-09-19T13:22:58;11.35;;;3.75;;
17173;SDS011;8702;48.130;-1.696;2023-09-19T13:25:33;9.55;;;3.55;;
17173;SDS011;8702;48.130;-1.696;2023-09-19T13:28:00;10.95;;;4.25;;
17173;SDS011;8702;48.130;-1.696;2023-09-19T13:30:29;11.20;;;4.23;;
17173;SDS011;8702;48.130;-1.696;2023-09-19T13:33:06;8.90;;;3.63;;
17173;SDS011;8702;48.130;-1.696;2023-09-19T13:35:34;10.35;;;4.22;;
17173;SDS011;8702;48.130;-1.696;2023-09-19T13:38:03;9.75;;;3.60;;
17173;SDS011;8702;48.130;-1.696;2023-09-19T13:40:34;9.43;;;3.47;;
17173;SDS011;8702;48.130;-1.696;2023-09-19T13:43:02;9.43;;;3.50;;
17173;SDS011;8702;48.130;-1.696;2023-09-19T13:45:31;12.15;;;3.90;;
17173;SDS011;8702;48.130;-1.696;2023-09-19T13:47:59;10.60;;;3.92;;
17173;SDS011;8702;48.130;-1.696;2023-09-19T13:50:26;10.73;;;3.83;;
17173;SDS011;8702;48.130;-1.696;2023-09-19T13:52:54;12.90;;;4.30;;
17173;SDS011;8702;48.130;-1.696;2023-09-19T13:55:22;13.95;;;4.10;;
17173;SDS011;8702;48.130;-1.696;2023-09-19T13:57:51;12.43;;;4.03;;
17173;SDS011;8702;48.130;-1.696;2023-09-19T14:00:19;14.18;;;4.00;;
17173;SDS011;8702;48.130;-1.696;2023-09-19T14:02:47;12.43;;;3.92;;
17173;SDS011;8702;48.130;-1.696;2023-09-19T14:05:16;12.15;;;3.95;;
17173;SDS011;8702;48.130;-1.696;2023-09-19T14:07:44;10.57;;;3.83;;
17173;SDS011;8702;48.130;-1.696;2023-09-19T14:10:11;11.30;;;3.77;;
17173;SDS011;8702;48.130;-1.696;2023-09-19T14:12:39;9.30;;;3.90;;
17173;SDS011;8702;48.130;-1.696;2023-09-19T14:15:08;10.75;;;3.80;;
17173;SDS011;8702;48.130;-1.696;2023-09-19T14:17:37;11.18;;;3.42;;
17173;SDS011;8702;48.130;-1.696;2023-09-19T14:20:04;13.18;;;3.75;;
17173;SDS011;8702;48.130;-1.696;2023-09-19T14:22:32;13.05;;;4.13;;
17173;SDS011;8702;48.130;-1.696;2023-09-19T14:25:00;13.88;;;4.13;;
17173;SDS011;8702;48.130;-1.696;2023-09-19T14:27:27;8.77;;;3.70;;
17173;SDS011;8702;48.130;-1.696;2023-09-19T14:29:54;10.55;;;3.95;;
17173;SDS011;8702;48.130;-1.696;2023-09-19T14:32:23;8.45;;;3.55;;
17173;SDS011;8702;48.130;-1.696;2023-09-19T14:34:51;9.35;;;3.80;;
17173;SDS011;8702;48.130;-1.696;2023-09-19T14:37:18;13.13;;;3.80;;
17173;SDS011;8702;48.130;-1.696;2023-09-19T14:39:46;10.52;;;4.05;;
17173;SDS011;8702;48.130;-1.696;2023-09-19T14:42:13;10.18;;;3.95;;
17173;SDS011;8702;48.130;-1.696;2023-09-19T14:44:42;9.88;;;3.88;;
17173;SDS011;8702;48.130;-1.696;2023-09-19T14:47:09;10.35;;;3.88;;
17173;SDS011;8702;48.130;-1.696;2023-09-19T14:49:39;12.32;;;4.35;;
17173;SDS011;8702;48.130;-1.696;2023-09-19T14:52:07;10.05;;;3.95;;
17173;SDS011;8702;48.130;-1.696;2023-09-19T14:54:35;12.00;;;4.32;;
17173;SDS011;8702;48.130;-1.696;2023-09-19T14:57:03;9.20;;;4.13;;
17173;SDS011;8702;48.130;-1.696;2023-09-19T14:59:30;10.07;;;3.88;;
17173;SDS011;8702;48.130;-1.696;2023-09-19T15:01:57;14.75;;;4.43;;
17173;SDS011;8702;48.130;-1.696;2023-09-19T15:04:25;11.57;;;4.40;;
17173;SDS011;8702;48.130;-1.696;2023-09-19T15:06:54;12.52;;;4.60;;
17173;SDS011;8702;48.130;-1.696;2023-09-19T15:09:21;12.93;;;4.57;;
17173;SDS011;8702;48.130;-1.696;2023-09-19T15:11:51;13.05;;;4.90;;
17173;SDS011;8702;48.130;-1.696;2023-09-19T15:14:18;11.55;;;4.63;;
17173;SDS011;8702;48.130;-1.696;2023-09-19T15:16:46;11.63;;;4.70;;
17173;SDS011;8702;48.130;-1.696;2023-09-19T15:19:13;11.75;;;4.55;;
17173;SDS011;8702;48.130;-1.696;2023-09-19T15:21:40;12.68;;;4.80;;
17173;SDS011;8702;48.130;-1.696;2023-09-19T15:24:09;11.65;;;4.05;;
17173;SDS011;8702;48.130;-1.696;2023-09-19T15:26:36;10.57;;;4.43;;